Time;durP1;ratioP1;P1;durP2;ratioP2;P2;SDS_P1;SDS_P2;PMS_P1;PMS_P2;Temp;Humidity;BMP_temperature;BMP_pressure;BME280_temperature;BME280_humidity;BME280_pressure;Samples;Min_cycle;Max_cycle;Signal;HPM_P1;HPM_P2
2022/04/05 00:01:31;;;;;;;7.70;5.05;;;;;;;13.32;54.33;100861.44;5068004;28;20049;-57
2022/04/05 00:03:58;;;;;;;8.82;4.57;;;;;;;13.93;53.33;100853.78;5074416;28;20052;-58
2022/04/05 00:06:26;;;;;;;8.65;5.30;;;;;;;14.07;52.53;100859.91;5069702;28;20060;-59
2022/04/05 00:08:53;;;;;;;8.48;4.60;;;;;;;14.30;52.21;100852.94;5085947;28;20067;-58
2022/04/05 00:11:21;;;;;;;9.48;4.75;;;;;;;13.94;52.80;100855.38;5064605;28;20137;-59
2022/04/05 00:13:48;;;;;;;9.43;5.00;;;;;;;14.00;52.68;100851.31;5070010;28;20511;-59
2022/04/05 00:16:16;;;;;;;6.85;4.53;;;;;;;14.10;52.81;100862.81;5070684;28;20052;-58
2022/04/05 00:18:44;;;;;;;10.27;5.55;;;;;;;14.03;52.86;100856.16;5068788;28;20045;-59
2022/04/05 00:21:11;;;;;;;9.80;4.80;;;;;;;13.76;53.56;100856.59;5067574;28;20053;-60
2022/04/05 00:23:38;;;;;;;9.43;5.22;;;;;;;12.55;57.24;100857.03;5069978;28;20048;-58
2022/04/05 00:26:12;;;;;;;8.38;4.60;;;;;;;13.02;57.39;100858.88;5072617;28;20503;-59
2022/04/05 00:28:40;;;;;;;8.15;3.85;;;;;;;13.72;54.83;100856.44;5072542;28;20541;-58
2022/04/05 00:31:07;;;;;;;9.05;3.83;;;;;;;14.13;53.88;100855.78;5072187;28;21683;-59
2022/04/05 00:33:35;;;;;;;8.93;4.28;;;;;;;14.17;53.14;100860.34;5071136;28;20052;-58
2022/04/05 00:36:02;;;;;;;8.00;5.00;;;;;;;12.55;56.41;100870.84;5072022;28;20044;-59
2022/04/05 00:38:30;;;;;;;7.85;4.88;;;;;;;12.32;60.22;100864.63;5070517;28;20087;-56
2022/04/05 00:40:57;;;;;;;6.53;4.25;;;;;;;13.55;56.54;100860.09;5074186;28;20056;-58
2022/04/05 00:43:25;;;;;;;9.35;5.10;;;;;;;13.12;56.08;100862.13;5069906;28;20045;-57
2022/04/05 00:45:54;;;;;;;7.32;4.25;;;;;;;13.40;56.59;100863.38;5091913;28;20755;-58
2022/04/05 00:48:51;;;;;;;8.97;4.90;;;;;;;13.25;56.46;100857.56;5075464;28;20057;-56
2022/04/05 00:51:20;;;;;;;8.38;4.63;;;;;;;13.53;56.75;100856.00;5063430;28;20057;-55
2022/04/05 00:53:50;;;;;;;7.35;4.10;;;;;;;14.01;55.04;100850.13;5070162;28;20048;-58
2022/04/05 00:56:19;;;;;;;8.52;4.20;;;;;;;12.71;58.75;100849.91;5068563;28;20424;-59
2022/04/05 00:58:48;;;;;;;9.13;4.45;;;;;;;13.34;57.53;100855.56;5056251;28;20060;-58
2022/04/05 01:01:18;;;;;;;10.57;4.10;;;;;;;13.40;57.26;100848.72;5073432;28;20056;-56
2022/04/05 01:03:48;;;;;;;8.15;4.57;;;;;;;13.37;57.51;100849.38;5077358;28;20101;-59
2022/04/05 01:06:34;;;;;;;10.43;4.32;;;;;;;13.62;56.83;100844.91;5069133;28;20803;-58
2022/04/05 01:09:02;;;;;;;10.50;4.15;;;;;;;14.05;55.56;100843.59;5070542;28;20053;-58
2022/04/05 01:11:30;;;;;;;10.82;4.57;;;;;;;13.95;55.61;100846.75;5075425;28;20049;-60
2022/04/05 01:13:57;;;;;;;9.20;4.55;;;;;;;14.05;55.32;100843.59;5075911;28;20048;-58
2022/04/05 01:16:24;;;;;;;9.48;4.10;;;;;;;14.03;55.56;100845.09;5085641;28;20052;-60
2022/04/05 01:18:52;;;;;;;9.80;4.80;;;;;;;13.95;55.92;100845.91;5063676;28;20057;-60
2022/04/05 01:21:20;;;;;;;6.57;4.10;;;;;;;12.74;59.66;100847.28;5077173;28;20053;-59
2022/04/05 01:24:06;;;;;;;9.73;4.45;;;;;;;13.41;58.28;100837.31;5075873;28;20056;-59
2022/04/05 01:26:48;;;;;;;11.68;4.88;;;;;;;13.63;57.44;100835.47;5066277;28;20048;-59
2022/04/05 01:29:18;;;;;;;9.63;5.22;;;;;;;13.70;57.10;100833.00;5070319;28;20053;-59
2022/04/05 01:31:50;;;;;;;6.43;4.30;;;;;;;14.10;56.46;100831.53;5071631;28;20044;-58
2022/04/05 01:34:21;;;;;;;8.63;5.15;;;;;;;12.56;60.83;100831.00;5076058;28;20403;-58
2022/04/05 01:36:50;;;;;;;8.70;4.60;;;;;;;13.03;60.29;100828.13;5069848;28;20056;-60
2022/04/05 01:39:20;;;;;;;9.77;5.13;;;;;;;13.30;59.38;100824.97;5076403;28;20048;-58
2022/04/05 01:41:56;;;;;;;8.25;4.07;;;;;;;13.93;57.48;100820.53;5075168;28;20049;-60
2022/04/05 01:44:25;;;;;;;10.35;4.28;;;;;;;13.94;57.17;100828.50;5068288;28;20056;-59
2022/04/05 01:46:52;;;;;;;9.15;4.22;;;;;;;13.64;57.99;100826.03;5072439;28;20068;-59
2022/04/05 01:49:20;;;;;;;8.40;4.10;;;;;;;13.90;57.27;100810.09;5070415;28;20400;-59
2022/04/05 01:51:48;;;;;;;6.03;3.53;;;;;;;13.88;57.51;100813.22;5076698;28;20048;-57
2022/04/05 01:54:17;;;;;;;6.70;4.35;;;;;;;14.03;56.99;100818.22;5076425;28;20055;-59
2022/04/05 01:56:49;;;;;;;7.57;4.47;;;;;;;13.82;57.80;100814.56;5076643;28;20053;-58
2022/04/05 01:59:19;;;;;;;9.27;5.40;;;;;;;13.74;57.99;100809.06;5067425;28;20067;-59
2022/04/05 02:01:47;;;;;;;8.05;4.93;;;;;;;14.10;56.99;100801.06;5069668;28;20071;-57
2022/04/05 02:04:14;;;;;;;7.60;4.28;;;;;;;14.12;56.61;100812.63;5052299;28;20504;-59
2022/04/05 02:06:43;;;;;;;8.80;5.75;;;;;;;14.10;56.95;100812.13;5073408;28;20423;-59
2022/04/05 02:09:14;;;;;;;9.95;4.72;;;;;;;13.85;57.37;100807.53;5064846;28;20051;-58
2022/04/05 02:11:44;;;;;;;8.85;5.70;;;;;;;13.07;59.47;100815.28;5072944;28;20059;-60
2022/04/05 02:14:24;;;;;;;8.05;4.90;;;;;;;13.52;59.21;100815.66;5066745;28;20049;-56
2022/04/05 02:16:53;;;;;;;7.35;5.07;;;;;;;13.81;58.25;100812.13;5075153;28;20068;-59
2022/04/05 02:19:22;;;;;;;8.77;5.10;;;;;;;13.52;59.18;100807.34;5065204;28;20056;-57
2022/04/05 02:21:50;;;;;;;8.30;4.15;;;;;;;13.62;58.81;100806.16;5065218;28;20048;-57
2022/04/05 02:24:18;;;;;;;10.15;4.40;;;;;;;14.00;57.82;100813.31;5073917;28;20044;-57
2022/04/05 02:26:46;;;;;;;7.28;4.93;;;;;;;13.32;59.26;100814.41;5086712;28;20644;-60
2022/04/05 02:29:14;;;;;;;7.80;4.15;;;;;;;13.45;59.96;100810.63;5072607;28;20376;-58
2022/04/05 02:31:44;;;;;;;7.93;5.05;;;;;;;13.50;58.71;100821.53;5069172;28;20056;-59
2022/04/05 02:34:13;;;;;;;10.10;5.25;;;;;;;12.69;61.58;100810.72;5061429;28;20041;-58
2022/04/05 02:36:51;;;;;;;7.78;4.35;;;;;;;13.43;59.95;100807.38;5073390;28;20492;-58
2022/04/05 02:39:19;;;;;;;8.38;4.70;;;;;;;13.01;61.51;100807.41;5066602;28;20049;-58
2022/04/05 02:41:51;;;;;;;7.75;4.90;;;;;;;13.32;60.45;100796.97;5066440;28;20550;-60
2022/04/05 02:44:20;;;;;;;6.65;4.90;;;;;;;13.62;59.66;100804.22;5072400;28;20047;-60
2022/04/05 02:46:51;;;;;;;6.78;4.00;;;;;;;13.89;58.72;100800.19;5070015;28;20075;-58
2022/04/05 02:49:20;;;;;;;9.48;5.25;;;;;;;13.02;60.50;100795.28;5055322;28;20048;-56
2022/04/05 02:51:49;;;;;;;12.43;4.70;;;;;;;13.35;61.03;100788.03;5068890;28;20480;-59
2022/04/05 02:54:23;;;;;;;7.68;4.97;;;;;;;13.77;59.45;100791.78;5062846;28;20060;-58
2022/04/05 02:56:54;;;;;;;6.72;4.32;;;;;;;13.41;60.13;100792.22;5085061;28;20135;-60
2022/04/05 02:59:22;;;;;;;9.25;4.10;;;;;;;13.76;59.89;100790.97;5087625;28;20055;-58
2022/04/05 03:01:51;;;;;;;7.70;3.67;;;;;;;14.10;58.57;100789.97;5072364;28;20059;-56
2022/04/05 03:04:20;;;;;;;8.27;4.97;;;;;;;14.22;58.17;100787.28;5055904;28;20048;-59
2022/04/05 03:06:49;;;;;;;7.45;4.10;;;;;;;13.97;58.71;100785.47;5074037;28;20140;-56
2022/04/05 03:09:17;;;;;;;7.05;3.42;;;;;;;14.22;57.91;100788.13;5070753;28;20056;-63
2022/04/05 03:11:51;;;;;;;8.98;4.68;;;;;;;14.27;57.72;100779.63;5071270;28;20518;-63
2022/04/05 03:14:19;;;;;;;6.68;3.92;;;;;;;14.16;58.39;100777.53;5067208;28;20049;-62
2022/04/05 03:16:47;;;;;;;9.80;4.97;;;;;;;13.67;58.85;100781.88;5068571;28;20044;-63
2022/04/05 03:19:18;;;;;;;9.23;4.05;;;;;;;13.72;59.95;100780.91;5073619;28;20388;-63
2022/04/05 03:21:48;;;;;;;7.45;4.35;;;;;;;13.96;58.95;100775.56;5086825;28;20044;-62
2022/04/05 03:24:15;;;;;;;5.40;3.67;;;;;;;14.03;58.92;100781.38;5068308;28;20348;-63
2022/04/05 03:26:43;;;;;;;8.95;4.35;;;;;;;13.96;58.95;100781.91;5063273;28;20041;-62
2022/04/05 03:29:11;;;;;;;8.15;4.13;;;;;;;14.02;59.01;100772.25;5069262;28;20044;-62
2022/04/05 03:31:39;;;;;;;5.88;3.90;;;;;;;14.17;58.67;100773.63;5076405;28;20072;-62
2022/04/05 03:34:08;;;;;;;4.95;3.50;;;;;;;13.55;60.46;100771.53;5070063;28;20052;-62
2022/04/05 03:36:37;;;;;;;9.27;4.78;;;;;;;12.84;62.89;100775.09;5077095;28;20082;-62
2022/04/05 03:39:05;;;;;;;7.63;4.90;;;;;;;12.95;63.25;100767.28;5073166;28;20059;-62
2022/04/05 03:41:32;;;;;;;7.97;4.63;;;;;;;13.34;62.35;100761.50;5072588;28;20049;-62
2022/04/05 03:43:59;;;;;;;6.43;3.90;;;;;;;13.80;60.63;100764.25;5070393;28;20424;-62
2022/04/05 03:46:34;;;;;;;6.78;3.85;;;;;;;13.34;62.23;100761.50;5066736;28;20060;-62
2022/04/05 03:49:03;;;;;;;6.78;4.18;;;;;;;13.31;63.02;100767.69;5071637;28;20411;-62
2022/04/05 03:51:31;;;;;;;6.32;4.00;;;;;;;13.26;62.98;100759.59;5070859;28;20060;-64
2022/04/05 03:54:01;;;;;;;7.78;3.75;;;;;;;12.85;64.78;100759.31;5071713;28;20056;-62
2022/04/05 03:56:33;;;;;;;6.95;4.13;;;;;;;12.89;64.47;100763.03;5072805;28;20052;-62
2022/04/05 03:59:04;;;;;;;5.97;3.92;;;;;;;12.58;66.43;100760.47;5060263;28;20055;-61
2022/04/05 04:01:32;;;;;;;6.50;3.50;;;;;;;13.05;65.15;100756.72;5080891;28;20048;-62
2022/04/05 04:04:00;;;;;;;5.95;4.13;;;;;;;12.94;65.25;100760.94;5089566;28;20471;-61
2022/04/05 04:06:28;;;;;;;8.52;3.53;;;;;;;13.04;65.06;100759.81;5073614;28;20057;-62
2022/04/05 04:08:56;;;;;;;6.53;3.60;;;;;;;13.39;63.80;100759.38;5076639;28;20044;-62
2022/04/05 04:11:24;;;;;;;5.93;4.13;;;;;;;13.19;64.04;100764.81;5085474;28;20052;-62
2022/04/05 04:13:52;;;;;;;5.18;3.72;;;;;;;12.97;65.13;100756.69;5080455;28;20056;-63
2022/04/05 04:16:24;;;;;;;5.47;3.80;;;;;;;13.24;64.79;100754.38;5085333;28;20083;-63
2022/04/05 04:18:52;;;;;;;6.63;4.75;;;;;;;12.91;65.42;100758.00;5081641;28;20049;-63
2022/04/05 04:21:20;;;;;;;6.22;4.53;;;;;;;12.92;65.39;100752.13;5058563;28;20431;-62
2022/04/05 04:23:48;;;;;;;6.10;4.00;;;;;;;13.09;65.33;100752.13;5079602;28;20059;-62
2022/04/05 04:26:15;;;;;;;6.80;4.30;;;;;;;13.37;63.86;100756.13;5079571;28;20064;-62
2022/04/05 04:28:50;;;;;;;5.07;3.42;;;;;;;13.51;63.98;100753.16;5079520;28;20063;-62
2022/04/05 04:31:17;;;;;;;6.97;4.32;;;;;;;13.13;65.56;100755.88;5077655;28;20400;-60
2022/04/05 04:33:45;;;;;;;5.55;4.15;;;;;;;13.13;64.54;100758.63;5073981;28;20528;-62
2022/04/05 04:36:12;;;;;;;6.28;3.95;;;;;;;13.23;73.90;100757.47;5074405;28;20063;-57
2022/04/05 04:38:39;;;;;;;15.32;5.55;;;;;;;14.02;79.12;100754.81;5072102;28;20052;-58
2022/04/05 04:41:10;;;;;;;11.70;5.60;;;;;;;13.61;77.53;100757.50;5069416;28;20105;-59
2022/04/05 04:43:38;;;;;;;10.32;5.50;;;;;;;13.70;84.91;100750.78;5075858;28;20052;-59
2022/04/05 04:46:05;;;;;;;8.05;4.93;;;;;;;13.57;80.95;100752.63;5057360;28;20049;-56
2022/04/05 04:48:32;;;;;;;9.25;5.57;;;;;;;13.35;83.64;100758.41;5078937;28;20059;-55
2022/04/05 04:50:59;;;;;;;9.43;4.88;;;;;;;13.64;79.70;100763.19;5077029;28;20056;-59
2022/04/05 04:53:27;;;;;;;11.82;5.00;;;;;;;13.69;77.54;100754.69;5080499;28;20052;-56
2022/04/05 04:55:54;;;;;;;7.25;4.22;;;;;;;13.89;76.90;100753.94;5077958;28;20059;-57
2022/04/05 04:58:32;;;;;;;7.88;4.00;;;;;;;13.79;76.18;100751.53;5077212;28;20063;-58
2022/04/05 05:01:01;;;;;;;9.35;4.63;;;;;;;13.94;75.59;100750.97;5070901;28;20074;-55
2022/04/05 05:03:28;;;;;;;7.40;4.22;;;;;;;13.83;74.33;100755.25;5078117;28;20057;-58
2022/04/05 05:05:57;;;;;;;9.55;4.28;;;;;;;13.91;74.61;100757.19;5074248;28;20546;-59
2022/04/05 05:08:25;;;;;;;7.90;4.57;;;;;;;14.04;73.39;100747.00;5070092;28;20053;-61
2022/04/05 05:10:52;;;;;;;9.15;4.68;;;;;;;14.05;71.59;100756.94;5058025;28;20049;-58
2022/04/05 05:13:31;;;;;;;7.72;4.30;;;;;;;13.50;74.15;100749.56;5063610;28;20056;-58
2022/04/05 05:15:59;;;;;;;14.55;4.32;;;;;;;13.80;73.62;100747.63;5073416;28;20079;-60
2022/04/05 05:18:26;;;;;;;10.43;4.40;;;;;;;14.01;72.26;100754.03;5075602;28;20052;-58
2022/04/05 05:20:54;;;;;;;12.73;4.32;;;;;;;14.10;71.51;100752.03;5076200;28;20270;-58
2022/04/05 05:23:21;;;;;;;8.45;4.88;;;;;;;13.87;71.51;100747.91;5076741;28;20123;-59
2022/04/05 05:25:49;;;;;;;9.05;4.45;;;;;;;13.95;71.46;100746.22;5076458;28;20059;-60
2022/04/05 05:28:16;;;;;;;8.13;4.93;;;;;;;14.17;70.04;100759.78;5075514;28;20068;-59
2022/04/05 05:30:44;;;;;;;11.52;6.32;;;;;;;14.32;69.40;100750.91;5074982;28;20053;-58
2022/04/05 05:33:11;;;;;;;6.97;5.30;;;;;;;14.39;68.92;100751.19;5076449;28;20045;-59
2022/04/05 05:35:39;;;;;;;9.43;3.63;;;;;;;14.33;68.62;100747.00;5075121;28;21628;-59
2022/04/05 05:38:06;;;;;;;7.03;4.45;;;;;;;14.27;69.19;100754.69;5067185;28;20558;-57
2022/04/05 05:40:37;;;;;;;5.88;4.10;;;;;;;14.20;69.55;100745.25;5076946;28;20052;-57
2022/04/05 05:43:05;;;;;;;6.07;3.83;;;;;;;14.11;69.22;100744.50;5087910;28;20064;-56
2022/04/05 05:45:35;;;;;;;8.48;4.93;;;;;;;14.09;69.49;100749.56;5076086;28;20045;-57
2022/04/05 05:48:04;;;;;;;7.20;4.00;;;;;;;14.24;69.14;100741.47;5067420;28;20063;-59
2022/04/05 05:50:31;;;;;;;6.07;3.40;;;;;;;14.45;67.45;100739.53;5077022;28;20803;-59
2022/04/05 05:52:59;;;;;;;6.38;4.00;;;;;;;14.28;68.06;100745.22;5076975;28;20052;-60
2022/04/05 05:55:27;;;;;;;5.82;3.95;;;;;;;14.37;67.79;100736.84;5070175;28;20124;-59
2022/04/05 05:57:54;;;;;;;7.00;4.28;;;;;;;14.19;68.35;100747.22;5076648;28;20057;-57
2022/04/05 06:00:22;;;;;;;7.25;4.03;;;;;;;14.32;67.93;100748.94;5075638;28;20048;-58
2022/04/05 06:02:54;;;;;;;5.97;3.70;;;;;;;14.42;67.34;100764.34;5075615;28;20516;-57
2022/04/05 06:05:22;;;;;;;5.50;3.50;;;;;;;14.47;67.08;100764.19;5076385;28;20053;-57
2022/04/05 06:07:49;;;;;;;5.60;3.55;;;;;;;14.48;66.80;100765.78;5076268;28;20078;-59
2022/04/05 06:10:17;;;;;;;7.32;4.68;;;;;;;13.51;68.12;100767.78;5060715;28;20398;-57
2022/04/05 06:12:48;;;;;;;7.53;3.50;;;;;;;13.72;70.08;100765.09;5075072;28;20048;-58
2022/04/05 06:15:17;;;;;;;7.80;4.00;;;;;;;13.65;69.99;100778.63;5075725;28;20052;-58
2022/04/05 06:17:48;;;;;;;9.93;4.50;;;;;;;13.71;69.92;100773.72;5075642;28;20045;-57
2022/04/05 06:20:18;;;;;;;6.82;4.68;;;;;;;13.60;67.73;100778.03;5068831;28;20792;-53
2022/04/05 06:23:00;;;;;;;6.22;3.60;;;;;;;13.93;69.60;100776.25;5075926;28;20385;-56
2022/04/05 06:25:36;;;;;;;9.80;3.67;;;;;;;14.24;67.52;100771.16;5071770;28;20052;-55
2022/04/05 06:28:05;;;;;;;8.80;3.83;;;;;;;14.25;68.15;100781.91;5069108;28;20052;-56
2022/04/05 06:30:33;;;;;;;6.45;3.85;;;;;;;14.21;67.54;100788.47;5065263;28;20056;-55
2022/04/05 06:33:12;;;;;;;6.07;4.22;;;;;;;13.72;67.50;100783.66;5071131;28;20049;-58
2022/04/05 06:35:56;;;;;;;6.82;4.95;;;;;;;13.18;68.76;100790.84;5070463;28;20053;-55
2022/04/05 06:38:25;;;;;;;7.30;4.72;;;;;;;12.59;72.08;100792.50;5068952;28;20052;-58
2022/04/05 06:41:00;;;;;;;9.30;5.50;;;;;;;11.62;75.96;100805.88;5070397;28;20053;-55
2022/04/05 06:43:28;;;;;;;8.93;7.47;;;;;;;11.41;77.96;100805.63;5070568;28;20060;-58
2022/04/05 06:45:55;;;;;;;8.63;6.72;;;;;;;11.20;79.50;100802.59;5068076;28;20045;-53
2022/04/05 06:48:23;;;;;;;12.98;6.78;;;;;;;11.22;80.54;100805.03;5074552;28;20049;-55
2022/04/05 06:50:50;;;;;;;9.57;7.05;;;;;;;11.12;81.37;100802.53;5053568;28;20048;-55
2022/04/05 06:53:18;;;;;;;9.20;7.78;;;;;;;10.90;82.88;100805.28;5075094;28;20049;-56
2022/04/05 06:55:46;;;;;;;9.63;7.57;;;;;;;10.80;83.71;100803.63;5059174;28;20045;-58
2022/04/05 06:58:13;;;;;;;11.73;7.53;;;;;;;10.86;84.35;100794.09;5052105;28;20052;-57
2022/04/05 07:00:40;;;;;;;10.10;7.47;;;;;;;10.82;84.45;100795.03;5070720;28;20044;-59
2022/04/05 07:03:08;;;;;;;10.77;7.85;;;;;;;10.90;84.50;100800.59;5068068;28;20052;-55
2022/04/05 07:05:38;;;;;;;9.48;7.43;;;;;;;10.88;84.95;100796.56;5074293;28;20060;-56
2022/04/05 07:08:06;;;;;;;11.98;7.75;;;;;;;11.05;84.48;100793.91;5070220;28;20057;-62
2022/04/05 07:10:33;;;;;;;11.02;7.30;;;;;;;10.97;84.61;100798.22;5068726;28;20056;-61
2022/04/05 07:13:00;;;;;;;16.00;7.70;;;;;;;10.86;85.20;100796.84;5066266;28;20048;-63
2022/04/05 07:15:28;;;;;;;12.45;6.82;;;;;;;11.06;85.18;100790.00;5072775;28;20071;-62
2022/04/05 07:17:56;;;;;;;9.77;6.63;;;;;;;11.11;84.33;100798.16;5071984;28;20056;-62
2022/04/05 07:20:30;;;;;;;10.25;5.60;;;;;;;11.38;83.65;100798.00;5068234;28;20078;-61
2022/04/05 07:22:58;;;;;;;13.55;6.47;;;;;;;11.26;83.34;100792.25;5070198;28;20048;-61
2022/04/05 07:25:26;;;;;;;9.15;6.72;;;;;;;11.06;84.44;100788.06;5068809;28;20672;-63
2022/04/05 07:27:54;;;;;;;11.38;6.50;;;;;;;11.22;84.12;100786.56;5069751;28;20618;-62
2022/04/05 07:30:23;;;;;;;9.73;6.38;;;;;;;11.22;84.05;100792.06;5069452;28;20416;-62
2022/04/05 07:32:50;;;;;;;10.43;6.50;;;;;;;11.10;84.33;100780.81;5076934;28;20051;-63
2022/04/05 07:35:18;;;;;;;8.40;5.93;;;;;;;11.11;84.90;100781.59;5076548;28;20385;-61
2022/04/05 07:37:46;;;;;;;9.93;6.65;;;;;;;11.21;85.15;100787.66;5074996;28;20048;-61
2022/04/05 07:40:15;;;;;;;9.50;6.65;;;;;;;11.29;84.78;100786.91;5073740;28;20056;-63
2022/04/05 07:42:44;;;;;;;9.43;6.30;;;;;;;11.40;84.58;100786.63;5055176;28;20057;-63
2022/04/05 07:45:12;;;;;;;10.10;7.55;;;;;;;11.49;84.03;100784.75;5070689;28;20189;-61
2022/04/05 07:47:40;;;;;;;14.15;9.30;;;;;;;11.37;84.56;100790.03;5074034;28;20052;-62
2022/04/05 07:50:09;;;;;;;17.75;13.18;;;;;;;11.29;85.75;100795.19;5064771;28;20049;-62
2022/04/05 07:52:36;;;;;;;12.88;9.00;;;;;;;11.35;85.29;100802.19;5061191;28;20051;-61
2022/04/05 07:55:04;;;;;;;12.30;8.48;;;;;;;11.37;85.54;100796.34;5073313;28;20048;-60
2022/04/05 07:57:32;;;;;;;14.55;11.18;;;;;;;11.32;85.75;100799.25;5073021;28;20048;-61
2022/04/05 08:00:00;;;;;;;11.50;8.25;;;;;;;11.45;85.29;100795.59;5073080;28;20472;-64
2022/04/05 08:02:27;;;;;;;10.40;7.30;;;;;;;11.59;85.15;100801.00;5072602;28;20168;-61
2022/04/05 08:05:02;;;;;;;11.23;7.63;;;;;;;11.38;85.57;100794.41;5068044;28;20052;-63
2022/04/05 08:07:29;;;;;;;10.65;7.90;;;;;;;11.49;85.48;100790.25;5063462;28;20048;-62
2022/04/05 08:09:57;;;;;;;10.10;6.88;;;;;;;11.72;84.60;100800.09;5063510;28;20057;-63
2022/04/05 08:12:25;;;;;;;9.45;7.20;;;;;;;11.58;85.25;100791.91;5069126;28;20072;-62
2022/04/05 08:14:52;;;;;;;9.98;7.03;;;;;;;11.59;85.16;100799.06;5068568;28;20048;-61
2022/04/05 08:17:19;;;;;;;9.68;7.22;;;;;;;11.41;85.95;100800.09;5067500;28;20683;-61
2022/04/05 08:19:47;;;;;;;12.50;7.65;;;;;;;11.32;86.85;100807.50;5062981;28;20062;-62
2022/04/05 08:22:14;;;;;;;10.40;7.38;;;;;;;11.71;85.45;100807.59;5067097;28;20056;-64
2022/04/05 08:24:41;;;;;;;9.85;7.30;;;;;;;11.90;84.17;100802.63;5063322;28;20064;-62
2022/04/05 08:27:09;;;;;;;10.15;6.35;;;;;;;11.58;84.35;100816.75;5063363;28;20041;-62
2022/04/05 08:29:40;;;;;;;11.27;7.00;;;;;;;11.46;85.81;100813.75;5061941;28;20076;-61
2022/04/05 08:32:07;;;;;;;12.40;7.70;;;;;;;11.28;87.30;100815.59;5065651;28;20052;-63
2022/04/05 08:34:38;;;;;;;10.93;7.53;;;;;;;11.21;88.05;100817.19;5074023;28;20068;-62
2022/04/05 08:37:06;;;;;;;11.18;7.90;;;;;;;11.33;87.77;100814.69;5073104;28;20063;-62
2022/04/05 08:39:33;;;;;;;12.55;7.90;;;;;;;11.41;87.84;100815.84;5065779;28;20059;-62
2022/04/05 08:42:02;;;;;;;11.02;8.43;;;;;;;11.18;88.46;100815.88;5066573;28;20048;-62
2022/04/05 08:44:30;;;;;;;10.80;7.85;;;;;;;11.36;87.89;100811.28;5076717;28;20044;-64
2022/04/05 08:47:01;;;;;;;12.85;7.97;;;;;;;11.41;88.52;100804.81;5077584;28;20424;-62
2022/04/05 08:49:30;;;;;;;12.38;8.63;;;;;;;11.59;87.46;100810.09;5073300;28;20056;-63
2022/04/05 08:51:57;;;;;;;12.40;8.50;;;;;;;11.76;86.78;100814.91;5077875;28;20048;-63
2022/04/05 08:54:25;;;;;;;11.98;9.18;;;;;;;11.56;86.83;100804.41;5073905;28;20056;-63
2022/04/05 08:56:52;;;;;;;15.55;8.52;;;;;;;11.63;87.37;100810.28;5073891;28;20060;-63
2022/04/05 08:59:19;;;;;;;12.15;8.80;;;;;;;11.74;87.11;100808.88;5067760;28;20044;-63
2022/04/05 09:01:47;;;;;;;11.57;7.95;;;;;;;11.83;86.22;100798.69;5077475;28;20037;-62
2022/04/05 09:04:14;;;;;;;13.20;9.05;;;;;;;11.78;86.88;100809.88;5076858;28;20036;-63
2022/04/05 09:06:42;;;;;;;12.52;9.55;;;;;;;11.84;86.73;100801.13;5076965;28;20052;-62
2022/04/05 09:09:17;;;;;;;13.23;9.23;;;;;;;11.63;87.10;100799.25;5076986;28;20055;-63
2022/04/05 09:11:48;;;;;;;15.77;9.15;;;;;;;11.95;86.95;100793.38;5075743;28;20052;-67
2022/04/05 09:14:27;;;;;;;13.10;8.73;;;;;;;12.30;85.08;100801.41;5073905;28;20420;-64
2022/04/05 09:17:05;;;;;;;15.43;10.07;;;;;;;12.12;85.52;100797.00;5075159;28;20423;-62
2022/04/05 09:19:45;;;;;;;12.93;9.10;;;;;;;12.23;85.19;100792.78;5054056;28;20056;-63
2022/04/05 09:22:13;;;;;;;;;;;;;;;12.01;86.37;100801.19;5086160;28;20049;-61
2022/04/05 09:24:45;;;;;;;15.35;9.30;;;;;;;11.93;86.29;100790.13;5069976;28;19920;-62
2022/04/05 09:27:13;;;;;;;11.55;8.93;;;;;;;12.12;87.02;100796.16;5074908;28;20055;-62
2022/04/05 09:29:41;;;;;;;18.10;12.73;;;;;;;12.20;85.64;100792.63;5070779;28;20435;-63
2022/04/05 09:32:09;;;;;;;13.80;10.73;;;;;;;12.11;86.49;100808.34;5048760;28;20068;-66
2022/04/05 09:34:47;;;;;;;13.52;9.52;;;;;;;12.10;86.22;100806.75;5066573;28;20049;-62
2022/04/05 09:37:15;;;;;;;15.02;11.38;;;;;;;12.25;86.06;100809.03;5083186;28;20048;-63
2022/04/05 09:39:43;;;;;;;15.27;10.27;;;;;;;12.50;84.97;100812.97;5068798;28;20045;-63
2022/04/05 09:42:10;;;;;;;15.90;9.15;;;;;;;12.44;85.03;100807.63;5066920;28;20142;-64
2022/04/05 09:44:42;;;;;;;13.23;9.05;;;;;;;12.45;85.54;100813.94;5070979;28;20045;-64
2022/04/05 09:47:14;;;;;;;13.68;8.98;;;;;;;12.90;83.76;100806.16;5068514;28;20399;-62
2022/04/05 09:49:46;;;;;;;15.48;8.77;;;;;;;12.71;84.13;100812.00;5069479;28;20061;-62
2022/04/05 09:52:31;;;;;;;14.73;9.50;;;;;;;12.48;85.13;100814.09;5064936;28;20041;-63
2022/04/05 09:55:10;;;;;;;14.18;10.52;;;;;;;12.10;87.18;100810.28;5068655;28;20044;-62
2022/04/05 09:57:37;;;;;;;14.82;10.05;;;;;;;12.06;88.41;100806.56;5074248;28;20375;-61
2022/04/05 10:00:10;;;;;;;15.45;10.02;;;;;;;12.20;88.13;100792.63;5073026;28;20047;-62
2022/04/05 10:03:00;;;;;;;12.70;10.10;;;;;;;12.22;88.10;100799.44;5065532;28;20040;-62
2022/04/05 10:05:31;;;;;;;21.17;15.35;;;;;;;12.52;86.89;100805.19;5071047;28;20060;-63
2022/04/05 10:08:02;;;;;;;18.25;15.02;;;;;;;12.64;86.64;100797.06;5068143;28;20040;-62
2022/04/05 10:10:30;;;;;;;22.40;19.58;;;;;;;12.82;85.05;100799.47;5066527;28;20048;-63
2022/04/05 10:12:57;;;;;;;21.83;18.92;;;;;;;12.79;85.14;100802.91;5072584;28;20072;-64
2022/04/05 10:15:28;;;;;;;13.80;11.10;;;;;;;13.12;83.75;100804.03;5070277;28;20863;-62
2022/04/05 10:17:57;;;;;;;12.68;9.73;;;;;;;12.82;84.33;100796.72;5053038;28;20057;-63
2022/04/05 10:20:25;;;;;;;13.77;8.35;;;;;;;13.11;83.58;100801.59;5067927;28;20051;-62
2022/04/05 10:22:56;;;;;;;14.25;8.43;;;;;;;12.92;83.16;100796.38;5069879;28;20048;-62
2022/04/05 10:25:24;;;;;;;12.40;9.07;;;;;;;12.68;84.45;100807.13;5073218;28;20052;-61
2022/04/05 10:27:51;;;;;;;17.80;11.85;;;;;;;12.71;85.12;100805.69;5075786;28;20057;-60
2022/04/05 10:30:24;;;;;;;13.10;8.85;;;;;;;12.58;85.62;100796.41;5071233;28;20528;-63
2022/04/05 10:33:08;;;;;;;13.18;8.88;;;;;;;12.80;85.33;100799.00;5072294;28;20044;-61
2022/04/05 10:35:42;;;;;;;27.98;18.73;;;;;;;12.80;85.09;100800.94;5069448;28;20052;-64
2022/04/05 10:38:15;;;;;;;24.60;16.50;;;;;;;12.52;85.57;100803.22;5058505;28;20067;-62
2022/04/05 10:40:42;;;;;;;18.52;13.27;;;;;;;12.65;85.28;100805.03;5073802;28;20069;-64
2022/04/05 10:43:17;;;;;;;16.13;14.07;;;;;;;12.78;84.50;100800.47;5061336;28;20056;-62
2022/04/05 10:45:45;;;;;;;17.15;12.80;;;;;;;12.85;84.29;100809.88;5075298;28;20052;-62
2022/04/05 10:48:18;;;;;;;14.60;10.18;;;;;;;13.01;83.69;100805.47;5071918;28;20048;-63
2022/04/05 10:51:02;;;;;;;13.27;8.13;;;;;;;12.98;83.73;100805.31;5066587;28;20085;-63
2022/04/05 10:53:33;;;;;;;13.45;7.90;;;;;;;12.95;84.04;100800.44;5066734;28;20048;-62
2022/04/05 10:56:03;;;;;;;21.92;8.57;;;;;;;12.75;83.76;100796.41;5066262;28;20055;-62
2022/04/05 10:58:58;;;;;;;12.57;7.55;;;;;;;12.56;85.74;100784.03;5062254;28;20056;-63
2022/04/05 11:01:39;;;;;;;15.20;10.10;;;;;;;12.91;84.57;100785.66;5051534;28;20064;-63
2022/04/05 11:04:12;;;;;;;14.32;8.98;;;;;;;12.83;85.38;100781.75;5080760;28;20070;-62
2022/04/05 11:07:15;;;;;;;15.68;8.93;;;;;;;13.00;84.22;100787.28;5058953;28;20040;-62
2022/04/05 11:10:08;;;;;;;14.30;8.48;;;;;;;12.89;84.75;100785.16;5009998;28;20421;-62
2022/04/05 11:12:42;;;;;;;15.55;9.60;;;;;;;12.80;85.69;100787.94;5055247;28;20546;-63
2022/04/05 11:15:12;;;;;;;16.73;9.48;;;;;;;12.80;85.95;100787.94;5055553;28;20726;-62
2022/04/05 11:17:42;;;;;;;16.17;8.40;;;;;;;12.91;85.28;100780.94;5060306;28;20055;-63
2022/04/05 11:20:11;;;;;;;12.40;8.25;;;;;;;12.61;85.97;100784.69;5058770;28;20036;-61
2022/04/05 11:22:39;;;;;;;12.98;7.85;;;;;;;12.63;86.42;100776.06;5069487;28;20499;-63
2022/04/05 11:25:07;;;;;;;15.95;7.82;;;;;;;12.76;85.74;100780.63;5059833;28;20413;-63
2022/04/05 11:27:35;;;;;;;14.98;9.15;;;;;;;12.82;85.86;100785.66;5049489;28;20052;-63
2022/04/05 11:30:21;;;;;;;12.52;8.20;;;;;;;12.85;85.82;100786.97;5069840;28;20055;-66
2022/04/05 11:33:08;;;;;;;13.60;7.55;;;;;;;13.08;84.39;100774.59;5060693;28;20380;-62
2022/04/05 11:36:10;;;;;;;12.60;7.05;;;;;;;13.08;84.40;100778.16;5071005;28;20044;-63